sensor_id;sensor_type;location;lat;lon;timestamp;pressure;altitude;pressure_sealevel;temperature;humidity
63652;BME280;49801;37.536;-122.304;2022-12-17T00:00:31;101961.44;;;11.04;59.85
63652;BME280;49801;37.536;-122.304;2022-12-17T00:01:15;101960.59;;;11.04;60.11
63652;BME280;49801;37.536;-122.304;2022-12-17T00:01:59;101963.44;;;11.02;60.37
63652;BME280;49801;37.536;-122.304;2022-12-17T00:02:43;101961.72;;;11.01;60.29
63652;BME280;49801;37.536;-122.304;2022-12-17T00:03:27;101959.00;;;11.01;60.35
63652;BME280;49801;37.536;-122.304;2022-12-17T00:04:11;101970.00;;;11.00;60.38
63652;BME280;49801;37.536;-122.304;2022-12-17T00:04:55;101968.00;;;11.02;60.58
63652;BME280;49801;37.536;-122.304;2022-12-17T00:05:39;101971.72;;;11.01;60.54
63652;BME280;49801;37.536;-122.304;2022-12-17T00:06:23;101965.03;;;10.95;60.69
63652;BME280;49801;37.536;-122.304;2022-12-17T00:07:06;101970.03;;;10.90;61.10
63652;BME280;49801;37.536;-122.304;2022-12-17T00:08:00;101958.47;;;10.88;60.88
63652;BME280;49801;37.536;-122.304;2022-12-17T00:08:43;101962.88;;;10.89;60.61
63652;BME280;49801;37.536;-122.304;2022-12-17T00:09:27;101970.31;;;10.87;60.90
63652;BME280;49801;37.536;-122.304;2022-12-17T00:10:11;101959.47;;;10.87;60.88
63652;BME280;49801;37.536;-122.304;2022-12-17T00:10:56;101966.91;;;10.85;60.90
63652;BME280;49801;37.536;-122.304;2022-12-17T00:11:40;101966.91;;;10.85;61.34
63652;BME280;49801;37.536;-122.304;2022-12-17T00:12:24;101962.47;;;10.84;61.48
63652;BME280;49801;37.536;-122.304;2022-12-17T00:13:21;101974.28;;;10.83;61.49
63652;BME280;49801;37.536;-122.304;2022-12-17T00:14:16;101970.19;;;10.79;61.59
63652;BME280;49801;37.536;-122.304;2022-12-17T00:15:00;101972.19;;;10.77;61.81
63652;BME280;49801;37.536;-122.304;2022-12-17T00:15:49;101972.47;;;10.74;61.89
63652;BME280;49801;37.536;-122.304;2022-12-17T00:16:33;101970.03;;;10.70;62.14
63652;BME280;49801;37.536;-122.304;2022-12-17T00:17:17;101970.63;;;10.64;62.76
63652;BME280;49801;37.536;-122.304;2022-12-17T00:18:09;101973.59;;;10.61;62.36
63652;BME280;49801;37.536;-122.304;2022-12-17T00:18:53;101974.59;;;10.60;62.16
63652;BME280;49801;37.536;-122.304;2022-12-17T00:19:37;101966.63;;;10.59;62.19
63652;BME280;49801;37.536;-122.304;2022-12-17T00:20:21;101969.47;;;10.57;62.10
63652;BME280;49801;37.536;-122.304;2022-12-17T00:21:06;101964.34;;;10.54;62.16
63652;BME280;49801;37.536;-122.304;2022-12-17T00:21:50;101969.47;;;10.57;61.94
63652;BME280;49801;37.536;-122.304;2022-12-17T00:22:34;101969.47;;;10.57;62.13
63652;BME280;49801;37.536;-122.304;2022-12-17T00:23:18;101967.78;;;10.56;62.38
63652;BME280;49801;37.536;-122.304;2022-12-17T00:24:02;101974.03;;;10.57;62.35
63652;BME280;49801;37.536;-122.304;2022-12-17T00:24:46;101966.03;;;10.55;62.45
63652;BME280;49801;37.536;-122.304;2022-12-17T00:25:29;101968.75;;;10.55;62.97
63652;BME280;49801;37.536;-122.304;2022-12-17T00:26:13;101970.75;;;10.53;62.71
63652;BME280;49801;37.536;-122.304;2022-12-17T00:26:59;101971.78;;;10.52;63.11
63652;BME280;49801;37.536;-122.304;2022-12-17T00:27:43;101962.91;;;10.50;63.27
63652;BME280;49801;37.536;-122.304;2022-12-17T00:28:28;101964.06;;;10.47;63.28
63652;BME280;49801;37.536;-122.304;2022-12-17T00:29:12;101966.19;;;10.44;63.53
63652;BME280;49801;37.536;-122.304;2022-12-17T00:29:56;101967.47;;;10.40;63.94
63652;BME280;49801;37.536;-122.304;2022-12-17T00:30:39;101955.78;;;10.39;63.86
63652;BME280;49801;37.536;-122.304;2022-12-17T00:31:27;101958.91;;;10.35;64.44
63652;BME280;49801;37.536;-122.304;2022-12-17T00:32:11;101966.31;;;10.32;64.54
63652;BME280;49801;37.536;-122.304;2022-12-17T00:32:55;101740.25;;;8.90;64.45
63652;BME280;49801;37.536;-122.304;2022-12-17T00:33:39;101962.31;;;10.27;64.82
63652;BME280;49801;37.536;-122.304;2022-12-17T00:34:23;101958.00;;;10.24;65.05
63652;BME280;49801;37.536;-122.304;2022-12-17T00:35:07;101958.31;;;10.21;65.20
63652;BME280;49801;37.536;-122.304;2022-12-17T00:35:51;101963.88;;;10.20;65.26
63652;BME280;49801;37.536;-122.304;2022-12-17T00:36:35;101962.28;;;10.17;65.18
63652;BME280;49801;37.536;-122.304;2022-12-17T00:37:19;101962.56;;;10.14;65.93
63652;BME280;49801;37.536;-122.304;2022-12-17T00:38:03;101959.13;;;10.12;65.76
63652;BME280;49801;37.536;-122.304;2022-12-17T00:38:47;101960.16;;;10.11;65.37
63652;BME280;49801;37.536;-122.304;2022-12-17T00:39:31;101955.88;;;10.08;65.90
63652;BME280;49801;37.536;-122.304;2022-12-17T00:40:15;101958.97;;;10.04;66.36
63652;BME280;49801;37.536;-122.304;2022-12-17T00:41:00;101958.25;;;10.02;66.26
63652;BME280;49801;37.536;-122.304;2022-12-17T00:41:44;101960.25;;;10.00;66.25
63652;BME280;49801;37.536;-122.304;2022-12-17T00:42:28;101960.53;;;9.97;66.29
63652;BME280;49801;37.536;-122.304;2022-12-17T00:43:12;101960.81;;;9.93;66.51
63652;BME280;49801;37.536;-122.304;2022-12-17T00:43:56;101960.22;;;9.90;66.76
63652;BME280;49801;37.536;-122.304;2022-12-17T00:44:44;101951.41;;;9.88;66.70
63652;BME280;49801;37.536;-122.304;2022-12-17T00:45:28;101959.66;;;9.86;66.68
63652;BME280;49801;37.536;-122.304;2022-12-17T00:46:12;101957.22;;;9.83;66.74
63652;BME280;49801;37.536;-122.304;2022-12-17T00:46:56;101950.38;;;9.79;67.06
63652;BME280;49801;37.536;-122.304;2022-12-17T00:47:40;101960.50;;;9.77;67.63
63652;BME280;49801;37.536;-122.304;2022-12-17T00:48:24;101956.34;;;9.73;67.86
63652;BME280;49801;37.536;-122.304;2022-12-17T00:49:07;101946.78;;;9.69;67.94
63652;BME280;49801;37.536;-122.304;2022-12-17T00:49:51;101954.47;;;9.64;68.53
63652;BME280;49801;37.536;-122.304;2022-12-17T00:50:35;101955.75;;;9.60;68.82
63652;BME280;49801;37.536;-122.304;2022-12-17T00:51:20;101956.13;;;9.55;69.08
63652;BME280;49801;37.536;-122.304;2022-12-17T00:52:04;101955.56;;;9.51;69.14
63652;BME280;49801;37.536;-122.304;2022-12-17T00:52:48;101947.84;;;9.47;69.72
63652;BME280;49801;37.536;-122.304;2022-12-17T00:53:31;101958.09;;;9.43;69.73
63652;BME280;49801;37.536;-122.304;2022-12-17T00:54:16;101956.66;;;9.39;69.87
63652;BME280;49801;37.536;-122.304;2022-12-17T00:55:00;101958.19;;;9.32;70.54
63652;BME280;49801;37.536;-122.304;2022-12-17T00:55:43;101954.03;;;9.28;70.56
63652;BME280;49801;37.536;-122.304;2022-12-17T00:56:35;101950.03;;;9.22;71.10
63652;BME280;49801;37.536;-122.304;2022-12-17T00:57:19;101954.84;;;9.18;70.91
63652;BME280;49801;37.536;-122.304;2022-12-17T00:58:03;101958.78;;;9.14;71.36
63652;BME280;49801;37.536;-122.304;2022-12-17T00:58:47;101954.78;;;9.09;71.51
63652;BME280;49801;37.536;-122.304;2022-12-17T00:59:45;101952.47;;;9.04;71.77
63652;BME280;49801;37.536;-122.304;2022-12-17T01:00:29;101957.28;;;9.00;72.16
63652;BME280;49801;37.536;-122.304;2022-12-17T01:01:13;101958.53;;;8.96;72.25
63652;BME280;49801;37.536;-122.304;2022-12-17T01:01:57;101956.22;;;8.92;72.41
63652;BME280;49801;37.536;-122.304;2022-12-17T01:02:41;101958.34;;;8.88;72.51
63652;BME280;49801;37.536;-122.304;2022-12-17T01:03:25;101956.03;;;8.83;72.91
63652;BME280;49801;37.536;-122.304;2022-12-17T01:04:10;101958.13;;;8.80;72.85
63652;BME280;49801;37.536;-122.304;2022-12-17T01:04:54;101959.41;;;8.76;73.53
63652;BME280;49801;37.536;-122.304;2022-12-17T01:05:38;101967.88;;;8.71;73.37
63652;BME280;49801;37.536;-122.304;2022-12-17T01:06:22;101948.50;;;8.66;73.67
63652;BME280;49801;37.536;-122.304;2022-12-17T01:07:05;101963.28;;;8.62;73.63
63652;BME280;49801;37.536;-122.304;2022-12-17T01:07:49;101954.72;;;8.57;73.76
63652;BME280;49801;37.536;-122.304;2022-12-17T01:08:33;101956.81;;;8.53;74.12
63652;BME280;49801;37.536;-122.304;2022-12-17T01:09:17;101958.91;;;8.50;74.37
63652;BME280;49801;37.536;-122.304;2022-12-17T01:10:01;101952.03;;;8.45;74.69
63652;BME280;49801;37.536;-122.304;2022-12-17T01:10:46;101957.72;;;8.42;74.73
63652;BME280;49801;37.536;-122.304;2022-12-17T01:11:30;101956.22;;;8.38;74.75
63652;BME280;49801;37.536;-122.304;2022-12-17T01:12:13;101961.03;;;8.35;75.13
63652;BME280;49801;37.536;-122.304;2022-12-17T01:12:57;101956.75;;;8.32;75.98
63652;BME280;49801;37.536;-122.304;2022-12-17T01:13:41;101960.66;;;8.28;75.93
63652;BME280;49801;37.536;-122.304;2022-12-17T01:14:25;101954.81;;;8.23;75.88
63652;BME280;49801;37.536;-122.304;2022-12-17T01:15:10;101959.47;;;8.21;75.94
63652;BME280;49801;37.536;-122.304;2022-12-17T01:15:54;101953.47;;;8.17;76.23
63652;BME280;49801;37.536;-122.304;2022-12-17T01:16:37;101961.94;;;8.13;76.45
63652;BME280;49801;37.536;-122.304;2022-12-17T01:17:41;101961.47;;;8.07;76.60
63652;BME280;49801;37.536;-122.304;2022-12-17T01:18:25;101951.94;;;8.03;76.98
63652;BME280;49801;37.536;-122.304;2022-12-17T01:19:09;101955.84;;;7.99;76.90
63652;BME280;49801;37.536;-122.304;2022-12-17T01:19:53;101963.22;;;7.97;77.32
63652;BME280;49801;37.536;-122.304;2022-12-17T01:20:37;101964.47;;;7.93;77.49
63652;BME280;49801;37.536;-122.304;2022-12-17T01:21:22;101962.00;;;7.90;77.40
63652;BME280;49801;37.536;-122.304;2022-12-17T01:22:06;101956.00;;;7.86;77.63
63652;BME280;49801;37.536;-122.304;2022-12-17T01:22:50;101967.91;;;7.84;77.68
63652;BME280;49801;37.536;-122.304;2022-12-17T01:23:34;101957.38;;;7.81;77.92
63652;BME280;49801;37.536;-122.304;2022-12-17T01:24:18;101966.66;;;7.77;78.02
63652;BME280;49801;37.536;-122.304;2022-12-17T01:25:02;101966.94;;;7.74;78.16
63652;BME280;49801;37.536;-122.304;2022-12-17T01:25:53;101960.91;;;7.70;78.36
63652;BME280;49801;37.536;-122.304;2022-12-17T01:26:37;101972.81;;;7.67;78.46
63652;BME280;49801;37.536;-122.304;2022-12-17T01:27:21;101968.66;;;7.63;78.64
63652;BME280;49801;37.536;-122.304;2022-12-17T01:28:05;101965.22;;;7.61;78.89
63652;BME280;49801;37.536;-122.304;2022-12-17T01:28:49;101966.44;;;7.57;78.91
63652;BME280;49801;37.536;-122.304;2022-12-17T01:29:33;101965.00;;;7.53;79.08
63652;BME280;49801;37.536;-122.304;2022-12-17T01:30:17;101968.66;;;7.52;79.14
63652;BME280;49801;37.536;-122.304;2022-12-17T01:31:00;101969.75;;;7.49;79.34
63652;BME280;49801;37.536;-122.304;2022-12-17T01:31:44;101968.28;;;7.45;79.70
63652;BME280;49801;37.536;-122.304;2022-12-17T01:32:29;101963.00;;;7.44;79.61
63652;BME280;49801;37.536;-122.304;2022-12-17T01:33:12;101956.16;;;7.40;79.89
63652;BME280;49801;37.536;-122.304;2022-12-17T01:33:56;101962.53;;;7.39;79.80
63652;BME280;49801;37.536;-122.304;2022-12-17T01:34:40;101960.06;;;7.36;80.27
63652;BME280;49801;37.536;-122.304;2022-12-17T01:35:24;101957.63;;;7.32;80.09
63652;BME280;49801;37.536;-122.304;2022-12-17T01:36:08;101963.28;;;7.29;80.14
63652;BME280;49801;37.536;-122.304;2022-12-17T01:36:52;101966.06;;;7.28;80.19
63652;BME280;49801;37.536;-122.304;2022-12-17T01:37:36;101967.16;;;7.25;80.42
63652;BME280;49801;37.536;-122.304;2022-12-17T01:38:20;101969.13;;;7.23;80.21
63652;BME280;49801;37.536;-122.304;2022-12-17T01:39:04;101969.38;;;7.20;80.53
63652;BME280;49801;37.536;-122.304;2022-12-17T01:39:48;101964.25;;;7.17;80.54
63652;BME280;49801;37.536;-122.304;2022-12-17T01:40:32;101966.16;;;7.15;80.76
63652;BME280;49801;37.536;-122.304;2022-12-17T01:41:16;101961.91;;;7.12;80.81
63652;BME280;49801;37.536;-122.304;2022-12-17T01:42:00;101970.09;;;7.11;80.82
63652;BME280;49801;37.536;-122.304;2022-12-17T01:42:44;101973.03;;;7.08;80.88
63652;BME280;49801;37.536;-122.304;2022-12-17T01:43:33;101970.56;;;7.05;81.17
63652;BME280;49801;37.536;-122.304;2022-12-17T01:45:20;101967.41;;;7.00;81.16
63652;BME280;49801;37.536;-122.304;2022-12-17T01:46:04;101973.03;;;6.97;81.37
63652;BME280;49801;37.536;-122.304;2022-12-17T01:46:49;101863.19;;;6.31;81.37
63652;BME280;49801;37.536;-122.304;2022-12-17T01:47:35;101968.81;;;6.92;81.61
63652;BME280;49801;37.536;-122.304;2022-12-17T01:48:20;101926.31;;;6.62;81.54
63652;BME280;49801;37.536;-122.304;2022-12-17T01:49:06;101972.88;;;6.87;81.74
63652;BME280;49801;37.536;-122.304;2022-12-17T01:49:51;101965.91;;;6.84;81.52
63652;BME280;49801;37.536;-122.304;2022-12-17T01:50:38;101963.31;;;6.83;81.68
63652;BME280;49801;37.536;-122.304;2022-12-17T01:51:24;101971.50;;;6.81;82.09
63652;BME280;49801;37.536;-122.304;2022-12-17T01:52:09;101970.78;;;6.79;82.19
63652;BME280;49801;37.536;-122.304;2022-12-17T01:52:54;101971.75;;;6.78;81.99
63652;BME280;49801;37.536;-122.304;2022-12-17T01:53:41;101974.66;;;6.75;82.29
63652;BME280;49801;37.536;-122.304;2022-12-17T01:54:47;101970.50;;;6.71;82.33
63652;BME280;49801;37.536;-122.304;2022-12-17T01:55:31;101973.41;;;6.68;82.57
63652;BME280;49801;37.536;-122.304;2022-12-17T01:56:15;101971.69;;;6.67;82.55
63652;BME280;49801;37.536;-122.304;2022-12-17T01:56:59;101970.94;;;6.65;82.68
63652;BME280;49801;37.536;-122.304;2022-12-17T01:57:43;101970.22;;;6.63;82.67
63652;BME280;49801;37.536;-122.304;2022-12-17T01:58:27;101973.88;;;6.62;83.06
63652;BME280;49801;37.536;-122.304;2022-12-17T01:59:12;101974.13;;;6.59;83.13
63652;BME280;49801;37.536;-122.304;2022-12-17T02:00:15;101971.56;;;6.57;83.09
63652;BME280;49801;37.536;-122.304;2022-12-17T02:00:59;101970.94;;;6.53;83.15
63652;BME280;49801;37.536;-122.304;2022-12-17T02:01:43;101965.78;;;6.50;83.38
63652;BME280;49801;37.536;-122.304;2022-12-17T02:02:27;101973.09;;;6.48;83.26
63652;BME280;49801;37.536;-122.304;2022-12-17T02:03:15;101967.72;;;6.48;83.86
63652;BME280;49801;37.536;-122.304;2022-12-17T02:04:00;101965.16;;;6.47;83.59
63652;BME280;49801;37.536;-122.304;2022-12-17T02:04:44;101973.34;;;6.45;83.93
63652;BME280;49801;37.536;-122.304;2022-12-17T02:05:32;101969.03;;;6.43;83.62
63652;BME280;49801;37.536;-122.304;2022-12-17T02:08:09;101961.53;;;6.35;84.13
63652;BME280;49801;37.536;-122.304;2022-12-17T02:09:02;101965.31;;;6.32;84.23
63652;BME280;49801;37.536;-122.304;2022-12-17T02:10:43;101965.69;;;6.28;84.60
63652;BME280;49801;37.536;-122.304;2022-12-17T02:12:47;101968.69;;;6.23;84.74
63652;BME280;49801;37.536;-122.304;2022-12-17T02:13:34;101965.28;;;6.21;84.63
63652;BME280;49801;37.536;-122.304;2022-12-17T02:14:33;101962.69;;;6.19;84.72
63652;BME280;49801;37.536;-122.304;2022-12-17T02:16:37;101965.81;;;6.13;85.13
63652;BME280;49801;37.536;-122.304;2022-12-17T02:17:27;101965.09;;;6.11;85.06
63652;BME280;49801;37.536;-122.304;2022-12-17T02:18:17;101974.16;;;6.10;85.37
63652;BME280;49801;37.536;-122.304;2022-12-17T02:20:18;101974.59;;;6.04;86.03
63652;BME280;49801;37.536;-122.304;2022-12-17T02:21:04;101979.13;;;6.04;86.26
63652;BME280;49801;37.536;-122.304;2022-12-17T02:21:50;101975.66;;;6.01;86.30
63652;BME280;49801;37.536;-122.304;2022-12-17T02:24:57;101976.75;;;5.99;86.56
63652;BME280;49801;37.536;-122.304;2022-12-17T02:25:41;101980.41;;;5.98;86.81
63652;BME280;49801;37.536;-122.304;2022-12-17T02:27:13;101979.75;;;5.94;86.78
63652;BME280;49801;37.536;-122.304;2022-12-17T02:27:58;101982.53;;;5.93;87.02
63652;BME280;49801;37.536;-122.304;2022-12-17T02:28:59;101985.47;;;5.90;87.17
63652;BME280;49801;37.536;-122.304;2022-12-17T02:29:47;101981.06;;;5.89;86.93
63652;BME280;49801;37.536;-122.304;2022-12-17T02:30:33;101985.59;;;5.88;87.01
63652;BME280;49801;37.536;-122.304;2022-12-17T02:31:17;101988.38;;;5.87;87.12
63652;BME280;49801;37.536;-122.304;2022-12-17T02:32:01;101992.03;;;5.86;87.19
63652;BME280;49801;37.536;-122.304;2022-12-17T02:32:47;101991.19;;;5.85;87.23
63652;BME280;49801;37.536;-122.304;2022-12-17T02:33:32;101989.44;;;5.84;87.68
63652;BME280;49801;37.536;-122.304;2022-12-17T02:34:21;101984.19;;;5.82;87.78
63652;BME280;49801;37.536;-122.304;2022-12-17T02:35:06;101997.63;;;5.82;87.37
63652;BME280;49801;37.536;-122.304;2022-12-17T02:35:56;101996.88;;;5.80;87.68
63652;BME280;49801;37.536;-122.304;2022-12-17T02:36:42;101996.13;;;5.78;87.35
63652;BME280;49801;37.536;-122.304;2022-12-17T02:37:26;101998.94;;;5.77;87.78
63652;BME280;49801;37.536;-122.304;2022-12-17T02:38:17;101989.28;;;5.74;87.70
63652;BME280;49801;37.536;-122.304;2022-12-17T02:39:02;101994.66;;;5.74;88.08
63652;BME280;49801;37.536;-122.304;2022-12-17T02:39:45;101998.28;;;5.73;87.95
63652;BME280;49801;37.536;-122.304;2022-12-17T02:40:29;101997.56;;;5.71;88.20
63652;BME280;49801;37.536;-122.304;2022-12-17T02:41:17;101991.28;;;5.71;87.98
63652;BME280;49801;37.536;-122.304;2022-12-17T02:42:02;101992.28;;;5.70;88.05
63652;BME280;49801;37.536;-122.304;2022-12-17T02:42:47;101996.81;;;5.69;88.14
63652;BME280;49801;37.536;-122.304;2022-12-17T02:43:32;102004.09;;;5.67;88.24
63652;BME280;49801;37.536;-122.304;2022-12-17T02:44:17;101998.72;;;5.67;88.32
63652;BME280;49801;37.536;-122.304;2022-12-17T02:45:02;101998.84;;;5.66;88.24
63652;BME280;49801;37.536;-122.304;2022-12-17T02:45:46;101999.81;;;5.64;88.17
63652;BME280;49801;37.536;-122.304;2022-12-17T02:46:31;102002.59;;;5.63;88.24
63652;BME280;49801;37.536;-122.304;2022-12-17T02:47:16;102000.03;;;5.61;88.33
63652;BME280;49801;37.536;-122.304;2022-12-17T02:48:02;102004.56;;;5.61;88.43
63652;BME280;49801;37.536;-122.304;2022-12-17T02:48:47;102001.97;;;5.59;88.59
63652;BME280;49801;37.536;-122.304;2022-12-17T02:49:30;102004.75;;;5.58;88.75
63652;BME280;49801;37.536;-122.304;2022-12-17T02:50:14;102006.59;;;5.57;88.74
63652;BME280;49801;37.536;-122.304;2022-12-17T02:50:58;102002.19;;;5.56;88.60
63652;BME280;49801;37.536;-122.304;2022-12-17T02:51:43;102004.97;;;5.55;88.66
63652;BME280;49801;37.536;-122.304;2022-12-17T02:52:27;101997.91;;;5.54;88.76
63652;BME280;49801;37.536;-122.304;2022-12-17T02:53:12;102009.50;;;5.54;89.03
63652;BME280;49801;37.536;-122.304;2022-12-17T02:54:00;102003.28;;;5.54;88.75
63652;BME280;49801;37.536;-122.304;2022-12-17T02:54:44;102001.53;;;5.53;89.09
63652;BME280;49801;37.536;-122.304;2022-12-17T02:55:28;102008.88;;;5.51;89.04
63652;BME280;49801;37.536;-122.304;2022-12-17T02:56:12;102005.19;;;5.52;89.03
63652;BME280;49801;37.536;-122.304;2022-12-17T02:56:56;102011.53;;;5.51;89.14
63652;BME280;49801;37.536;-122.304;2022-12-17T02:57:40;102007.13;;;5.50;89.24
63652;BME280;49801;37.536;-122.304;2022-12-17T02:58:24;102008.13;;;5.49;89.64
63652;BME280;49801;37.536;-122.304;2022-12-17T02:59:08;102009.06;;;5.48;89.74
63652;BME280;49801;37.536;-122.304;2022-12-17T02:59:52;102007.34;;;5.47;89.49
63652;BME280;49801;37.536;-122.304;2022-12-17T03:00:36;102011.00;;;5.45;89.15
63652;BME280;49801;37.536;-122.304;2022-12-17T03:01:20;102013.81;;;5.44;89.16
63652;BME280;49801;37.536;-122.304;2022-12-17T03:02:04;102013.91;;;5.42;89.53
63652;BME280;49801;37.536;-122.304;2022-12-17T03:02:47;102007.78;;;5.40;89.98
63652;BME280;49801;37.536;-122.304;2022-12-17T03:03:31;102005.22;;;5.39;90.13
63652;BME280;49801;37.536;-122.304;2022-12-17T03:04:15;102012.31;;;5.40;89.98
63652;BME280;49801;37.536;-122.304;2022-12-17T03:04:59;102013.16;;;5.40;89.99
63652;BME280;49801;37.536;-122.304;2022-12-17T03:05:44;102014.22;;;5.38;89.90
63652;BME280;49801;37.536;-122.304;2022-12-17T03:06:28;102008.00;;;5.37;90.25
63652;BME280;49801;37.536;-122.304;2022-12-17T03:07:11;102013.38;;;5.37;90.06
63652;BME280;49801;37.536;-122.304;2022-12-17T03:07:55;102013.38;;;5.37;90.17
63652;BME280;49801;37.536;-122.304;2022-12-17T03:08:39;102011.63;;;5.36;90.63
63652;BME280;49801;37.536;-122.304;2022-12-17T03:09:23;102010.78;;;5.36;90.46
63652;BME280;49801;37.536;-122.304;2022-12-17T03:10:07;102012.63;;;5.35;90.29
63652;BME280;49801;37.536;-122.304;2022-12-17T03:10:52;102012.63;;;5.35;90.25
63652;BME280;49801;37.536;-122.304;2022-12-17T03:11:36;102015.31;;;5.35;90.40
63652;BME280;49801;37.536;-122.304;2022-12-17T03:12:21;102015.53;;;5.32;90.12
63652;BME280;49801;37.536;-122.304;2022-12-17T03:13:05;102015.53;;;5.32;90.32
63652;BME280;49801;37.536;-122.304;2022-12-17T03:13:48;102011.09;;;5.31;90.51
63652;BME280;49801;37.536;-122.304;2022-12-17T03:14:32;102012.09;;;5.30;90.32
63652;BME280;49801;37.536;-122.304;2022-12-17T03:15:16;102015.72;;;5.29;90.86
63652;BME280;49801;37.536;-122.304;2022-12-17T03:16:06;102015.72;;;5.29;90.52
63652;BME280;49801;37.536;-122.304;2022-12-17T03:16:50;102014.03;;;5.28;90.50
63652;BME280;49801;37.536;-122.304;2022-12-17T03:17:34;102014.03;;;5.28;90.45
63652;BME280;49801;37.536;-122.304;2022-12-17T03:18:18;102025.72;;;5.27;90.82
63652;BME280;49801;37.536;-122.304;2022-12-17T03:19:02;102024.13;;;5.24;90.57
63652;BME280;49801;37.536;-122.304;2022-12-17T03:19:46;102017.88;;;5.24;90.66
63652;BME280;49801;37.536;-122.304;2022-12-17T03:20:30;102021.53;;;5.23;90.54
63652;BME280;49801;37.536;-122.304;2022-12-17T03:21:14;102032.28;;;5.23;90.93
63652;BME280;49801;37.536;-122.304;2022-12-17T03:21:58;102023.47;;;5.21;90.67
63652;BME280;49801;37.536;-122.304;2022-12-17T03:22:42;102016.38;;;5.20;90.48
63652;BME280;49801;37.536;-122.304;2022-12-17T03:23:26;102020.91;;;5.19;90.99
63652;BME280;49801;37.536;-122.304;2022-12-17T03:24:12;102020.03;;;5.19;90.39
63652;BME280;49801;37.536;-122.304;2022-12-17T03:24:56;102023.69;;;5.18;90.61
63652;BME280;49801;37.536;-122.304;2022-12-17T03:25:40;102020.25;;;5.16;90.31
63652;BME280;49801;37.536;-122.304;2022-12-17T03:26:24;102023.91;;;5.15;90.80
63652;BME280;49801;37.536;-122.304;2022-12-17T03:27:07;102027.53;;;5.14;90.48
63652;BME280;49801;37.536;-122.304;2022-12-17T03:27:52;102026.78;;;5.12;90.79
63652;BME280;49801;37.536;-122.304;2022-12-17T03:28:35;102020.66;;;5.10;91.18
63652;BME280;49801;37.536;-122.304;2022-12-17T03:29:19;102025.19;;;5.09;90.99
63652;BME280;49801;37.536;-122.304;2022-12-17T03:30:03;102022.50;;;5.09;90.81
63652;BME280;49801;37.536;-122.304;2022-12-17T03:30:48;102026.03;;;5.10;91.41
63652;BME280;49801;37.536;-122.304;2022-12-17T03:31:32;102034.09;;;5.10;91.00
63652;BME280;49801;37.536;-122.304;2022-12-17T03:32:16;102020.78;;;5.08;91.67
63652;BME280;49801;37.536;-122.304;2022-12-17T03:33:00;102028.81;;;5.08;91.55
63652;BME280;49801;37.536;-122.304;2022-12-17T03:33:44;102037.72;;;5.08;91.51
63652;BME280;49801;37.536;-122.304;2022-12-17T03:34:28;102030.75;;;5.06;91.30
63652;BME280;49801;37.536;-122.304;2022-12-17T03:35:12;102028.94;;;5.06;91.38
63652;BME280;49801;37.536;-122.304;2022-12-17T03:35:56;102033.53;;;5.04;91.56
63652;BME280;49801;37.536;-122.304;2022-12-17T03:36:40;102029.03;;;5.05;91.20
63652;BME280;49801;37.536;-122.304;2022-12-17T03:37:24;102030.97;;;5.03;91.27
63652;BME280;49801;37.536;-122.304;2022-12-17T03:38:09;102028.38;;;5.01;91.33
63652;BME280;49801;37.536;-122.304;2022-12-17T03:38:53;102026.69;;;5.00;91.22
63652;BME280;49801;37.536;-122.304;2022-12-17T03:39:37;102037.41;;;5.00;91.06
63652;BME280;49801;37.536;-122.304;2022-12-17T03:40:21;102030.53;;;4.96;91.44
63652;BME280;49801;37.536;-122.304;2022-12-17T03:41:05;102033.19;;;4.96;91.53
63652;BME280;49801;37.536;-122.304;2022-12-17T03:42:06;102035.88;;;4.96;91.61
63652;BME280;49801;37.536;-122.304;2022-12-17T03:42:50;102031.50;;;4.95;91.74
63652;BME280;49801;37.536;-122.304;2022-12-17T03:43:34;102027.09;;;4.94;91.65
63652;BME280;49801;37.536;-122.304;2022-12-17T03:44:18;102025.34;;;4.93;91.42
63652;BME280;49801;37.536;-122.304;2022-12-17T03:45:02;102029.03;;;4.92;91.53
63652;BME280;49801;37.536;-122.304;2022-12-17T03:45:50;102032.66;;;4.91;91.27
63652;BME280;49801;37.536;-122.304;2022-12-17T03:46:34;102034.59;;;4.89;91.72
63652;BME280;49801;37.536;-122.304;2022-12-17T03:47:18;102033.63;;;4.90;91.53
63652;BME280;49801;37.536;-122.304;2022-12-17T03:48:07;102034.59;;;4.89;91.64
63652;BME280;49801;37.536;-122.304;2022-12-17T03:48:51;102030.06;;;4.89;92.14
63652;BME280;49801;37.536;-122.304;2022-12-17T03:49:35;102037.28;;;4.89;92.08
63652;BME280;49801;37.536;-122.304;2022-12-17T03:50:24;102039.09;;;4.88;91.73
63652;BME280;49801;37.536;-122.304;2022-12-17T03:51:08;102037.38;;;4.87;91.85
63652;BME280;49801;37.536;-122.304;2022-12-17T03:51:52;102035.66;;;4.86;91.91
63652;BME280;49801;37.536;-122.304;2022-12-17T03:52:36;102030.28;;;4.86;92.06
63652;BME280;49801;37.536;-122.304;2022-12-17T03:53:20;102034.78;;;4.86;92.20
63652;BME280;49801;37.536;-122.304;2022-12-17T03:54:04;102027.72;;;4.85;92.10
63652;BME280;49801;37.536;-122.304;2022-12-17T03:54:48;102042.94;;;4.84;92.47
63652;BME280;49801;37.536;-122.304;2022-12-17T03:55:32;102036.72;;;4.84;91.85
63652;BME280;49801;37.536;-122.304;2022-12-17T03:56:16;102039.50;;;4.82;91.62
63652;BME280;49801;37.536;-122.304;2022-12-17T03:57:00;102038.66;;;4.82;91.94
63652;BME280;49801;37.536;-122.304;2022-12-17T03:57:44;102036.06;;;4.80;92.18
63652;BME280;49801;37.536;-122.304;2022-12-17T03:58:28;102040.59;;;4.80;91.90
63652;BME280;49801;37.536;-122.304;2022-12-17T03:59:11;102046.91;;;4.79;92.11
63652;BME280;49801;37.536;-122.304;2022-12-17T03:59:55;102044.22;;;4.79;91.90